sensor_id;sensor_type;location;lat;lon;timestamp;pressure;altitude;pressure_sealevel;temperature;humidity
47883;BME280;37739;50.350;7.578;2022-11-04T00:01:33;98522.41;;;10.77;99.27
47883;BME280;37739;50.350;7.578;2022-11-04T00:04:00;98530.06;;;10.75;99.21
47883;BME280;37739;50.350;7.578;2022-11-04T00:06:28;98524.03;;;10.73;99.16
47883;BME280;37739;50.350;7.578;2022-11-04T00:08:56;98529.25;;;10.76;98.97
47883;BME280;37739;50.350;7.578;2022-11-04T00:11:22;98536.97;;;10.78;98.95
47883;BME280;37739;50.350;7.578;2022-11-04T00:14:07;98545.50;;;10.77;99.02
47883;BME280;37739;50.350;7.578;2022-11-04T00:16:34;98552.31;;;10.76;99.32
47883;BME280;37739;50.350;7.578;2022-11-04T00:19:18;98559.16;;;10.76;99.07
47883;BME280;37739;50.350;7.578;2022-11-04T00:21:46;98562.59;;;10.76;99.00
47883;BME280;37739;50.350;7.578;2022-11-04T00:24:30;98566.00;;;10.77;99.02
47883;BME280;37739;50.350;7.578;2022-11-04T00:27:15;98567.75;;;10.78;99.04
47883;BME280;37739;50.350;7.578;2022-11-04T00:29:59;98577.16;;;10.79;98.78
47883;BME280;37739;50.350;7.578;2022-11-04T00:32:26;98583.97;;;10.77;98.74
47883;BME280;37739;50.350;7.578;2022-11-04T00:35:11;98589.06;;;10.75;98.48
47883;BME280;37739;50.350;7.578;2022-11-04T00:37:38;98595.88;;;10.73;98.51
47883;BME280;37739;50.350;7.578;2022-11-04T00:40:08;98609.56;;;10.72;98.28
47883;BME280;37739;50.350;7.578;2022-11-04T00:42:33;98602.69;;;10.71;98.27
47883;BME280;37739;50.350;7.578;2022-11-04T00:45:01;98612.91;;;10.68;98.04
47883;BME280;37739;50.350;7.578;2022-11-04T00:47:27;98600.06;;;10.67;97.49
47883;BME280;37739;50.350;7.578;2022-11-04T00:49:52;98601.66;;;10.61;97.36
47883;BME280;37739;50.350;7.578;2022-11-04T00:52:18;98603.34;;;10.59;96.91
47883;BME280;37739;50.350;7.578;2022-11-04T00:54:43;98601.59;;;10.57;96.71
47883;BME280;37739;50.350;7.578;2022-11-04T00:57:11;98598.13;;;10.55;96.20
47883;BME280;37739;50.350;7.578;2022-11-04T00:59:40;98600.63;;;10.52;95.84
47883;BME280;37739;50.350;7.578;2022-11-04T01:02:06;98616.88;;;10.51;96.27
47883;BME280;37739;50.350;7.578;2022-11-04T01:04:32;98625.31;;;10.47;95.89
47883;BME280;37739;50.350;7.578;2022-11-04T01:07:00;98636.34;;;10.43;95.76
47883;BME280;37739;50.350;7.578;2022-11-04T01:09:25;98624.31;;;10.38;95.56
47883;BME280;37739;50.350;7.578;2022-11-04T01:11:51;98626.81;;;10.34;95.33
47883;BME280;37739;50.350;7.578;2022-11-04T01:14:19;98629.38;;;10.34;95.24
47883;BME280;37739;50.350;7.578;2022-11-04T01:16:45;98626.72;;;10.31;94.86
47883;BME280;37739;50.350;7.578;2022-11-04T01:19:11;98633.56;;;10.30;95.28
47883;BME280;37739;50.350;7.578;2022-11-04T01:21:36;98643.75;;;10.29;95.36
47883;BME280;37739;50.350;7.578;2022-11-04T01:24:02;98644.50;;;10.23;95.06
47883;BME280;37739;50.350;7.578;2022-11-04T01:26:29;98649.63;;;10.23;95.09
47883;BME280;37739;50.350;7.578;2022-11-04T01:28:56;98664.19;;;10.24;95.34
47883;BME280;37739;50.350;7.578;2022-11-04T01:31:30;98667.63;;;10.26;95.30
47883;BME280;37739;50.350;7.578;2022-11-04T01:33:57;98669.31;;;10.26;94.77
47883;BME280;37739;50.350;7.578;2022-11-04T01:36:23;98673.53;;;10.23;94.83
47883;BME280;37739;50.350;7.578;2022-11-04T01:38:49;98680.41;;;10.25;94.88
47883;BME280;37739;50.350;7.578;2022-11-04T01:41:20;98679.44;;;10.19;94.69
47883;BME280;37739;50.350;7.578;2022-11-04T01:46:43;98684.53;;;10.16;94.74
47883;BME280;37739;50.350;7.578;2022-11-04T01:52:13;98672.50;;;10.12;94.53
47883;BME280;37739;50.350;7.578;2022-11-04T01:54:38;98676.69;;;10.09;94.52
47883;BME280;37739;50.350;7.578;2022-11-04T01:57:08;98674.13;;;10.09;94.69
47883;BME280;37739;50.350;7.578;2022-11-04T01:59:40;98674.16;;;10.12;94.47
47883;BME280;37739;50.350;7.578;2022-11-04T02:02:10;98675.06;;;10.12;94.40
47883;BME280;37739;50.350;7.578;2022-11-04T02:04:36;98675.88;;;10.11;94.46
47883;BME280;37739;50.350;7.578;2022-11-04T02:07:08;98683.47;;;10.07;94.49
47883;BME280;37739;50.350;7.578;2022-11-04T02:09:38;98680.91;;;10.07;94.48
47883;BME280;37739;50.350;7.578;2022-11-04T02:12:04;98683.31;;;10.00;93.78
47883;BME280;37739;50.350;7.578;2022-11-04T02:14:48;98690.09;;;9.97;93.53
47883;BME280;37739;50.350;7.578;2022-11-04T02:25:44;98677.91;;;9.87;90.41
47883;BME280;37739;50.350;7.578;2022-11-04T02:28:32;98675.31;;;9.85;89.63
47883;BME280;37739;50.350;7.578;2022-11-04T02:34:10;98670.91;;;9.78;89.90
47883;BME280;37739;50.350;7.578;2022-11-04T02:44:56;98675.84;;;9.70;89.34
47883;BME280;37739;50.350;7.578;2022-11-04T02:47:27;98674.13;;;9.69;89.77
47883;BME280;37739;50.350;7.578;2022-11-04T02:49:59;98677.47;;;9.67;89.22
47883;BME280;37739;50.350;7.578;2022-11-04T02:53:02;98669.63;;;9.59;89.16
47883;BME280;37739;50.350;7.578;2022-11-04T02:55:38;98670.41;;;9.56;89.53
47883;BME280;37739;50.350;7.578;2022-11-04T02:58:08;98666.97;;;9.56;89.83
47883;BME280;37739;50.350;7.578;2022-11-04T03:00:37;98677.97;;;9.52;89.88
47883;BME280;37739;50.350;7.578;2022-11-04T03:03:11;98672.81;;;9.50;90.15
47883;BME280;37739;50.350;7.578;2022-11-04T03:05:39;98676.19;;;9.48;90.13
47883;BME280;37739;50.350;7.578;2022-11-04T03:08:16;98674.44;;;9.47;90.32
47883;BME280;37739;50.350;7.578;2022-11-04T03:10:51;98665.06;;;9.46;90.04
47883;BME280;37739;50.350;7.578;2022-11-04T03:13:25;98670.16;;;9.46;90.09
47883;BME280;37739;50.350;7.578;2022-11-04T03:15:57;98670.84;;;9.38;90.29
47883;BME280;37739;50.350;7.578;2022-11-04T03:18:40;98662.38;;;9.41;90.16
47883;BME280;37739;50.350;7.578;2022-11-04T03:21:11;98659.78;;;9.39;90.27
47883;BME280;37739;50.350;7.578;2022-11-04T03:23:38;98655.44;;;9.37;90.34
47883;BME280;37739;50.350;7.578;2022-11-04T03:26:20;98652.03;;;9.36;90.35
47883;BME280;37739;50.350;7.578;2022-11-04T03:34:13;98638.25;;;9.30;89.95
47883;BME280;37739;50.350;7.578;2022-11-04T03:36:39;98635.63;;;9.28;90.07
47883;BME280;37739;50.350;7.578;2022-11-04T03:39:08;98632.13;;;9.24;89.94
47883;BME280;37739;50.350;7.578;2022-11-04T03:41:48;98639.81;;;9.24;89.56
47883;BME280;37739;50.350;7.578;2022-11-04T03:44:21;98639.91;;;9.28;89.81
47883;BME280;37739;50.350;7.578;2022-11-04T03:46:49;98645.88;;;9.28;89.87
47883;BME280;37739;50.350;7.578;2022-11-04T03:49:15;98639.84;;;9.26;89.47
47883;BME280;37739;50.350;7.578;2022-11-04T03:51:41;98644.97;;;9.26;89.45
47883;BME280;37739;50.350;7.578;2022-11-04T03:54:08;98651.81;;;9.27;89.32
47883;BME280;37739;50.350;7.578;2022-11-04T03:57:40;98662.94;;;9.29;89.54
47883;BME280;37739;50.350;7.578;2022-11-04T04:00:12;98651.03;;;9.31;89.25
47883;BME280;37739;50.350;7.578;2022-11-04T04:10:38;98660.56;;;9.35;89.07
47883;BME280;37739;50.350;7.578;2022-11-04T04:13:21;98657.09;;;9.35;88.68
47883;BME280;37739;50.350;7.578;2022-11-04T04:15:58;98655.44;;;9.35;88.77
47883;BME280;37739;50.350;7.578;2022-11-04T04:18:29;98663.88;;;9.33;88.69
47883;BME280;37739;50.350;7.578;2022-11-04T04:21:00;98668.19;;;9.34;89.16
47883;BME280;37739;50.350;7.578;2022-11-04T04:23:29;98668.19;;;9.34;88.87
47883;BME280;37739;50.350;7.578;2022-11-04T04:26:17;98681.03;;;9.37;88.89
47883;BME280;37739;50.350;7.578;2022-11-04T04:29:02;98675.06;;;9.36;88.91
47883;BME280;37739;50.350;7.578;2022-11-04T04:31:32;98675.91;;;9.35;88.83
47883;BME280;37739;50.350;7.578;2022-11-04T04:34:20;98674.22;;;9.36;89.04
47883;BME280;37739;50.350;7.578;2022-11-04T04:36:51;98671.66;;;9.36;89.26
47883;BME280;37739;50.350;7.578;2022-11-04T04:39:21;98669.91;;;9.35;89.10
47883;BME280;37739;50.350;7.578;2022-11-04T04:42:08;98671.59;;;9.34;89.16
47883;BME280;37739;50.350;7.578;2022-11-04T04:44:52;98675.78;;;9.31;89.58
47883;BME280;37739;50.350;7.578;2022-11-04T04:47:24;98672.31;;;9.29;89.76
47883;BME280;37739;50.350;7.578;2022-11-04T04:49:55;98666.22;;;9.23;89.60
47883;BME280;37739;50.350;7.578;2022-11-04T04:52:25;98662.00;;;9.24;89.41
47883;BME280;37739;50.350;7.578;2022-11-04T04:54:51;98657.66;;;9.21;89.34
47883;BME280;37739;50.350;7.578;2022-11-04T04:57:19;98651.59;;;9.18;89.49
47883;BME280;37739;50.350;7.578;2022-11-04T04:59:44;98651.56;;;9.16;89.79
47883;BME280;37739;50.350;7.578;2022-11-04T05:02:11;98648.13;;;9.16;89.63
47883;BME280;37739;50.350;7.578;2022-11-04T05:04:42;98655.78;;;9.14;89.69
47883;BME280;37739;50.350;7.578;2022-11-04T05:07:07;98655.00;;;9.17;89.91
47883;BME280;37739;50.350;7.578;2022-11-04T05:09:34;98643.06;;;9.17;90.07
47883;BME280;37739;50.350;7.578;2022-11-04T05:11:59;98631.13;;;9.18;90.27
47883;BME280;37739;50.350;7.578;2022-11-04T05:14:27;98638.78;;;9.18;90.55
47883;BME280;37739;50.350;7.578;2022-11-04T05:16:55;98638.03;;;9.20;90.53
47883;BME280;37739;50.350;7.578;2022-11-04T05:19:20;98630.41;;;9.23;90.45
47883;BME280;37739;50.350;7.578;2022-11-04T05:21:48;98627.91;;;9.27;90.51
47883;BME280;37739;50.350;7.578;2022-11-04T05:24:13;98623.69;;;9.29;90.45
47883;BME280;37739;50.350;7.578;2022-11-04T05:26:39;98629.81;;;9.34;90.19
47883;BME280;37739;50.350;7.578;2022-11-04T05:29:04;98630.31;;;9.19;90.29
47883;BME280;37739;50.350;7.578;2022-11-04T05:31:29;98631.19;;;9.21;91.09
47883;BME280;37739;50.350;7.578;2022-11-04T05:33:55;98633.94;;;9.29;90.55
47883;BME280;37739;50.350;7.578;2022-11-04T05:36:22;98635.72;;;9.33;89.93
47883;BME280;37739;50.350;7.578;2022-11-04T05:38:51;98647.75;;;9.35;89.69
47883;BME280;37739;50.350;7.578;2022-11-04T05:41:20;98652.13;;;9.39;89.66
47883;BME280;37739;50.350;7.578;2022-11-04T05:43:52;98657.25;;;9.41;89.50
47883;BME280;37739;50.350;7.578;2022-11-04T05:46:18;98657.22;;;9.39;88.86
47883;BME280;37739;50.350;7.578;2022-11-04T05:48:48;98658.94;;;9.40;88.95
47883;BME280;37739;50.350;7.578;2022-11-04T05:51:16;98659.03;;;9.43;89.16
47883;BME280;37739;50.350;7.578;2022-11-04T05:53:42;98665.84;;;9.43;88.74
47883;BME280;37739;50.350;7.578;2022-11-04T05:56:07;98665.84;;;9.43;88.72
47883;BME280;37739;50.350;7.578;2022-11-04T05:58:33;98661.59;;;9.43;89.15
47883;BME280;37739;50.350;7.578;2022-11-04T06:01:37;98663.28;;;9.43;88.75
47883;BME280;37739;50.350;7.578;2022-11-04T06:04:05;98670.97;;;9.43;89.08
47883;BME280;37739;50.350;7.578;2022-11-04T06:06:34;98678.66;;;9.44;88.99
47883;BME280;37739;50.350;7.578;2022-11-04T06:09:05;98672.78;;;9.47;88.74
47883;BME280;37739;50.350;7.578;2022-11-04T06:11:32;98678.75;;;9.48;89.01
47883;BME280;37739;50.350;7.578;2022-11-04T06:14:02;98683.94;;;9.51;88.83
47883;BME280;37739;50.350;7.578;2022-11-04T06:16:28;98683.03;;;9.49;88.76
47883;BME280;37739;50.350;7.578;2022-11-04T06:18:53;98689.00;;;9.48;88.45
47883;BME280;37739;50.350;7.578;2022-11-04T06:21:24;98694.06;;;9.46;88.04
47883;BME280;37739;50.350;7.578;2022-11-04T06:23:51;98701.75;;;9.46;88.18
47883;BME280;37739;50.350;7.578;2022-11-04T06:26:18;98704.34;;;9.48;87.69
47883;BME280;37739;50.350;7.578;2022-11-04T06:28:46;98702.59;;;9.45;87.51
47883;BME280;37739;50.350;7.578;2022-11-04T06:31:12;98700.03;;;9.47;87.68
47883;BME280;37739;50.350;7.578;2022-11-04T06:33:38;98705.16;;;9.47;87.56
47883;BME280;37739;50.350;7.578;2022-11-04T06:36:06;98709.47;;;9.48;87.35
47883;BME280;37739;50.350;7.578;2022-11-04T06:38:33;98705.16;;;9.47;87.12
47883;BME280;37739;50.350;7.578;2022-11-04T06:40:58;98704.31;;;9.46;87.18
47883;BME280;37739;50.350;7.578;2022-11-04T06:43:26;98697.47;;;9.45;86.86
47883;BME280;37739;50.350;7.578;2022-11-04T06:45:58;98716.25;;;9.46;87.33
47883;BME280;37739;50.350;7.578;2022-11-04T06:48:30;98712.84;;;9.47;87.31
47883;BME280;37739;50.350;7.578;2022-11-04T06:50:59;98717.09;;;9.46;87.14
47883;BME280;37739;50.350;7.578;2022-11-04T06:53:29;98723.97;;;9.47;87.06
47883;BME280;37739;50.350;7.578;2022-11-04T06:56:01;98721.38;;;9.46;87.12
47883;BME280;37739;50.350;7.578;2022-11-04T06:58:27;98728.19;;;9.47;87.27
47883;BME280;37739;50.350;7.578;2022-11-04T07:00:53;98729.88;;;9.44;87.05
47883;BME280;37739;50.350;7.578;2022-11-04T07:03:23;98734.97;;;9.43;86.75
47883;BME280;37739;50.350;7.578;2022-11-04T07:05:48;98735.78;;;9.42;87.11
47883;BME280;37739;50.350;7.578;2022-11-04T07:08:18;98737.50;;;9.41;87.77
47883;BME280;37739;50.350;7.578;2022-11-04T07:10:43;98734.88;;;9.40;88.05
47883;BME280;37739;50.350;7.578;2022-11-04T07:13:09;98734.84;;;9.38;87.94
47883;BME280;37739;50.350;7.578;2022-11-04T07:15:37;98735.69;;;9.37;88.19
47883;BME280;37739;50.350;7.578;2022-11-04T07:18:02;98738.31;;;9.40;87.64
47883;BME280;37739;50.350;7.578;2022-11-04T07:20:30;98743.47;;;9.42;87.80
47883;BME280;37739;50.350;7.578;2022-11-04T07:22:55;98745.13;;;9.40;87.30
47883;BME280;37739;50.350;7.578;2022-11-04T07:25:20;98750.28;;;9.41;87.01
47883;BME280;37739;50.350;7.578;2022-11-04T07:27:45;98750.34;;;9.44;86.86
47883;BME280;37739;50.350;7.578;2022-11-04T07:30:11;98748.78;;;9.50;86.58
47883;BME280;37739;50.350;7.578;2022-11-04T07:32:36;98753.09;;;9.52;86.49
47883;BME280;37739;50.350;7.578;2022-11-04T07:35:02;98749.63;;;9.50;86.33
47883;BME280;37739;50.350;7.578;2022-11-04T07:37:27;98761.63;;;9.51;86.27
47883;BME280;37739;50.350;7.578;2022-11-04T07:39:55;98759.06;;;9.51;86.39
47883;BME280;37739;50.350;7.578;2022-11-04T07:42:20;98755.59;;;9.49;86.51
47883;BME280;37739;50.350;7.578;2022-11-04T07:44:46;98757.41;;;9.53;86.41
47883;BME280;37739;50.350;7.578;2022-11-04T07:47:11;98767.69;;;9.56;86.02
47883;BME280;37739;50.350;7.578;2022-11-04T07:49:36;98765.19;;;9.58;85.79
47883;BME280;37739;50.350;7.578;2022-11-04T07:52:02;98771.16;;;9.57;85.51
47883;BME280;37739;50.350;7.578;2022-11-04T07:54:27;98772.03;;;9.59;85.67
47883;BME280;37739;50.350;7.578;2022-11-04T07:56:53;98766.13;;;9.61;85.71
47883;BME280;37739;50.350;7.578;2022-11-04T07:59:18;98773.03;;;9.66;85.68
47883;BME280;37739;50.350;7.578;2022-11-04T08:01:44;98775.59;;;9.66;85.53
47883;BME280;37739;50.350;7.578;2022-11-04T08:04:11;98777.31;;;9.65;85.68
47883;BME280;37739;50.350;7.578;2022-11-04T08:06:39;98779.00;;;9.65;85.89
47883;BME280;37739;50.350;7.578;2022-11-04T08:09:04;98773.91;;;9.65;85.83
47883;BME280;37739;50.350;7.578;2022-11-04T08:11:29;98779.00;;;9.65;85.75
47883;BME280;37739;50.350;7.578;2022-11-04T08:13:57;98789.34;;;9.69;85.83
47883;BME280;37739;50.350;7.578;2022-11-04T08:16:23;98783.47;;;9.73;85.75
47883;BME280;37739;50.350;7.578;2022-11-04T08:18:50;98786.97;;;9.77;85.76
47883;BME280;37739;50.350;7.578;2022-11-04T08:21:17;98787.03;;;9.78;85.50
47883;BME280;37739;50.350;7.578;2022-11-04T08:23:43;98781.94;;;9.80;85.61
47883;BME280;37739;50.350;7.578;2022-11-04T08:26:14;98789.69;;;9.83;85.49
47883;BME280;37739;50.350;7.578;2022-11-04T08:28:40;98792.22;;;9.81;85.61
47883;BME280;37739;50.350;7.578;2022-11-04T08:33:35;98786.13;;;9.76;85.52
47883;BME280;37739;50.350;7.578;2022-11-04T08:36:08;98796.31;;;9.75;85.60
47883;BME280;37739;50.350;7.578;2022-11-04T08:38:34;98792.91;;;9.74;85.58
47883;BME280;37739;50.350;7.578;2022-11-04T08:41:01;98800.63;;;9.76;85.75
47883;BME280;37739;50.350;7.578;2022-11-04T08:43:29;98796.28;;;9.73;86.09
47883;BME280;37739;50.350;7.578;2022-11-04T08:45:55;98787.66;;;9.70;86.24
47883;BME280;37739;50.350;7.578;2022-11-04T08:48:24;98792.72;;;9.67;86.57
47883;BME280;37739;50.350;7.578;2022-11-04T08:50:54;98785.09;;;9.70;86.56
47883;BME280;37739;50.350;7.578;2022-11-04T08:53:23;98785.19;;;9.73;86.51
47883;BME280;37739;50.350;7.578;2022-11-04T08:55:51;98789.50;;;9.75;86.59
47883;BME280;37739;50.350;7.578;2022-11-04T08:58:20;98789.59;;;9.78;86.51
47883;BME280;37739;50.350;7.578;2022-11-04T09:00:46;98787.91;;;9.80;86.49
47883;BME280;37739;50.350;7.578;2022-11-04T09:03:16;98784.59;;;9.85;86.49
47883;BME280;37739;50.350;7.578;2022-11-04T09:05:43;98788.16;;;9.90;86.63
47883;BME280;37739;50.350;7.578;2022-11-04T09:08:14;98788.19;;;9.93;86.32
47883;BME280;37739;50.350;7.578;2022-11-04T09:10:41;98788.38;;;9.99;86.34
47883;BME280;37739;50.350;7.578;2022-11-04T09:13:10;98780.78;;;10.03;86.18
47883;BME280;37739;50.350;7.578;2022-11-04T09:15:36;98790.22;;;10.06;86.01
47883;BME280;37739;50.350;7.578;2022-11-04T09:18:02;98781.75;;;10.09;85.84
47883;BME280;37739;50.350;7.578;2022-11-04T09:20:27;98775.81;;;10.11;85.88
47883;BME280;37739;50.350;7.578;2022-11-04T09:22:57;98778.50;;;10.17;85.68
47883;BME280;37739;50.350;7.578;2022-11-04T09:25:23;98768.38;;;10.22;85.39
47883;BME280;37739;50.350;7.578;2022-11-04T09:27:48;98765.81;;;10.22;85.32
47883;BME280;37739;50.350;7.578;2022-11-04T09:30:14;98770.94;;;10.23;85.40
47883;BME280;37739;50.350;7.578;2022-11-04T09:32:39;98770.16;;;10.26;85.22
47883;BME280;37739;50.350;7.578;2022-11-04T09:35:07;98771.03;;;10.27;85.17
47883;BME280;37739;50.350;7.578;2022-11-04T09:37:33;98769.38;;;10.29;85.23
47883;BME280;37739;50.350;7.578;2022-11-04T09:40:01;98757.56;;;10.34;85.24
47883;BME280;37739;50.350;7.578;2022-11-04T09:45:15;98762.09;;;10.47;84.76
47883;BME280;37739;50.350;7.578;2022-11-04T09:47:47;98764.06;;;10.59;84.41
47883;BME280;37739;50.350;7.578;2022-11-04T09:50:28;98772.06;;;10.74;83.83
47883;BME280;37739;50.350;7.578;2022-11-04T09:53:11;98777.22;;;10.77;83.50
47883;BME280;37739;50.350;7.578;2022-11-04T09:55:53;98776.34;;;10.75;83.91
47883;BME280;37739;50.350;7.578;2022-11-04T09:58:32;98775.50;;;10.76;83.88
47883;BME280;37739;50.350;7.578;2022-11-04T10:09:00;98778.84;;;11.18;82.09
47883;BME280;37739;50.350;7.578;2022-11-04T10:12:17;98777.81;;;11.08;82.36
47883;BME280;37739;50.350;7.578;2022-11-04T10:19:42;98799.28;;;11.12;82.47
47883;BME280;37739;50.350;7.578;2022-11-04T10:27:24;98798.66;;;11.25;82.62
47883;BME280;37739;50.350;7.578;2022-11-04T10:29:58;98807.25;;;11.27;82.57
47883;BME280;37739;50.350;7.578;2022-11-04T10:32:34;98804.69;;;11.27;82.26
47883;BME280;37739;50.350;7.578;2022-11-04T10:37:54;98803.84;;;11.27;82.15
47883;BME280;37739;50.350;7.578;2022-11-04T10:40:24;98812.41;;;11.29;82.35
47883;BME280;37739;50.350;7.578;2022-11-04T10:42:52;98810.69;;;11.26;82.22
47883;BME280;37739;50.350;7.578;2022-11-04T10:45:20;98817.50;;;11.26;82.60
47883;BME280;37739;50.350;7.578;2022-11-04T10:47:57;98818.31;;;11.23;82.62
47883;BME280;37739;50.350;7.578;2022-11-04T10:50:39;98815.72;;;11.22;82.54
47883;BME280;37739;50.350;7.578;2022-11-04T10:53:22;98813.09;;;11.18;82.48
47883;BME280;37739;50.350;7.578;2022-11-04T10:58:22;98821.59;;;11.16;82.82
47883;BME280;37739;50.350;7.578;2022-11-04T11:00:48;98825.06;;;11.18;83.12
47883;BME280;37739;50.350;7.578;2022-11-04T11:05:47;98823.31;;;11.15;82.94
47883;BME280;37739;50.350;7.578;2022-11-04T11:08:30;98818.97;;;11.13;83.05
47883;BME280;37739;50.350;7.578;2022-11-04T11:11:01;98818.09;;;11.12;83.12
47883;BME280;37739;50.350;7.578;2022-11-04T11:13:34;98816.38;;;11.11;83.04
47883;BME280;37739;50.350;7.578;2022-11-04T11:16:27;98824.13;;;11.13;82.97
47883;BME280;37739;50.350;7.578;2022-11-04T11:21:50;98832.78;;;11.19;83.15
47883;BME280;37739;50.350;7.578;2022-11-04T11:24:26;98822.56;;;11.21;83.46
47883;BME280;37739;50.350;7.578;2022-11-04T11:26:56;98817.44;;;11.23;83.30
47883;BME280;37739;50.350;7.578;2022-11-04T11:29:28;98817.53;;;11.27;83.63
47883;BME280;37739;50.350;7.578;2022-11-04T11:31:58;98813.31;;;11.31;84.29
47883;BME280;37739;50.350;7.578;2022-11-04T11:34:31;98825.41;;;11.36;84.23
47883;BME280;37739;50.350;7.578;2022-11-04T11:36:58;98817.63;;;11.33;84.39
47883;BME280;37739;50.350;7.578;2022-11-04T11:39:31;98816.88;;;11.37;84.70
47883;BME280;37739;50.350;7.578;2022-11-04T11:42:03;98818.59;;;11.38;85.01
47883;BME280;37739;50.350;7.578;2022-11-04T11:44:35;98818.66;;;11.42;84.99
47883;BME280;37739;50.350;7.578;2022-11-04T11:47:08;98820.47;;;11.49;84.95
47883;BME280;37739;50.350;7.578;2022-11-04T11:49:42;98822.28;;;11.53;85.15
47883;BME280;37739;50.350;7.578;2022-11-04T12:00:49;98810.66;;;11.75;84.90
47883;BME280;37739;50.350;7.578;2022-11-04T12:03:26;98810.72;;;11.79;84.59
47883;BME280;37739;50.350;7.578;2022-11-04T12:09:00;98823.69;;;11.86;86.39
47883;BME280;37739;50.350;7.578;2022-11-04T12:14:05;98822.97;;;11.94;84.45
47883;BME280;37739;50.350;7.578;2022-11-04T12:16:54;98815.38;;;11.99;83.76
47883;BME280;37739;50.350;7.578;2022-11-04T12:19:38;98824.03;;;12.06;84.17
47883;BME280;37739;50.350;7.578;2022-11-04T12:24:53;98818.41;;;11.78;82.10
47883;BME280;37739;50.350;7.578;2022-11-04T12:30:10;98819.59;;;11.97;83.04
47883;BME280;37739;50.350;7.578;2022-11-04T12:46:14;98817.66;;;11.85;82.35
47883;BME280;37739;50.350;7.578;2022-11-04T12:57:45;98837.16;;;11.74;84.03
47883;BME280;37739;50.350;7.578;2022-11-04T13:00:09;98834.88;;;11.89;83.96
47883;BME280;37739;50.350;7.578;2022-11-04T13:07:46;98845.56;;;12.14;82.15
47883;BME280;37739;50.350;7.578;2022-11-04T13:13:04;98843.22;;;12.29;80.83
47883;BME280;37739;50.350;7.578;2022-11-04T13:15:44;98844.22;;;12.37;79.30
47883;BME280;37739;50.350;7.578;2022-11-04T13:18:14;98845.19;;;12.46;79.50
47883;BME280;37739;50.350;7.578;2022-11-04T13:20:47;98842.66;;;12.50;78.98
47883;BME280;37739;50.350;7.578;2022-11-04T13:23:23;98843.50;;;12.48;78.97
47883;BME280;37739;50.350;7.578;2022-11-04T13:25:51;98848.59;;;12.45;79.04
47883;BME280;37739;50.350;7.578;2022-11-04T13:28:19;98856.34;;;12.46;78.90
47883;BME280;37739;50.350;7.578;2022-11-04T13:30:54;98846.91;;;12.45;79.15
47883;BME280;37739;50.350;7.578;2022-11-04T13:38:47;98852.88;;;12.44;78.93
47883;BME280;37739;50.350;7.578;2022-11-04T13:41:36;98858.84;;;12.42;79.19
47883;BME280;37739;50.350;7.578;2022-11-04T13:44:30;98850.13;;;12.33;79.09
47883;BME280;37739;50.350;7.578;2022-11-04T13:47:10;98851.94;;;12.37;79.43
47883;BME280;37739;50.350;7.578;2022-11-04T13:49:38;98855.31;;;12.35;79.67
47883;BME280;37739;50.350;7.578;2022-11-04T13:52:06;98849.28;;;12.33;79.58
47883;BME280;37739;50.350;7.578;2022-11-04T13:54:36;98854.44;;;12.34;79.44
47883;BME280;37739;50.350;7.578;2022-11-04T14:18:48;98879.06;;;12.20;78.67
47883;BME280;37739;50.350;7.578;2022-11-04T14:21:20;98885.09;;;12.21;79.05
47883;BME280;37739;50.350;7.578;2022-11-04T14:23:51;98888.53;;;12.21;78.73
47883;BME280;37739;50.350;7.578;2022-11-04T14:26:19;98899.69;;;12.22;79.04
47883;BME280;37739;50.350;7.578;2022-11-04T14:29:00;98915.78;;;12.10;79.23
47883;BME280;37739;50.350;7.578;2022-11-04T14:34:03;98924.97;;;11.97;80.26
47883;BME280;37739;50.350;7.578;2022-11-04T14:36:32;98930.25;;;12.03;80.04
47883;BME280;37739;50.350;7.578;2022-11-04T14:46:43;98942.47;;;12.16;79.33
47883;BME280;37739;50.350;7.578;2022-11-04T14:49:35;98948.50;;;12.18;79.05
47883;BME280;37739;50.350;7.578;2022-11-04T14:52:03;98951.06;;;12.18;79.41
47883;BME280;37739;50.350;7.578;2022-11-04T14:54:31;98958.81;;;12.22;78.90
47883;BME280;37739;50.350;7.578;2022-11-04T14:57:18;98957.09;;;12.21;78.37
47883;BME280;37739;50.350;7.578;2022-11-04T14:59:44;98955.38;;;12.21;79.06
47883;BME280;37739;50.350;7.578;2022-11-04T15:02:20;98962.22;;;12.19;79.03
47883;BME280;37739;50.350;7.578;2022-11-04T15:04:56;98966.50;;;12.18;79.25
47883;BME280;37739;50.350;7.578;2022-11-04T15:09:55;98967.28;;;12.14;80.13
47883;BME280;37739;50.350;7.578;2022-11-04T15:12:23;98975.00;;;12.14;80.41
47883;BME280;37739;50.350;7.578;2022-11-04T15:15:42;98978.34;;;12.10;80.56
47883;BME280;37739;50.350;7.578;2022-11-04T15:18:16;98981.72;;;12.08;80.65
47883;BME280;37739;50.350;7.578;2022-11-04T15:20:52;98986.75;;;12.02;80.97
47883;BME280;37739;50.350;7.578;2022-11-04T15:23:29;98987.59;;;11.99;80.86
47883;BME280;37739;50.350;7.578;2022-11-04T15:25:58;98992.72;;;11.99;81.16
47883;BME280;37739;50.350;7.578;2022-11-04T15:28:36;98998.69;;;11.98;81.19
47883;BME280;37739;50.350;7.578;2022-11-04T15:33:41;98996.78;;;11.88;81.09
47883;BME280;37739;50.350;7.578;2022-11-04T15:36:17;99012.88;;;11.79;81.15
47883;BME280;37739;50.350;7.578;2022-11-04T15:38:48;99009.44;;;11.78;81.28
47883;BME280;37739;50.350;7.578;2022-11-04T15:41:18;99008.59;;;11.79;81.22
47883;BME280;37739;50.350;7.578;2022-11-04T15:44:05;99018.78;;;11.75;82.00
47883;BME280;37739;50.350;7.578;2022-11-04T15:46:33;99008.50;;;11.75;81.92
47883;BME280;37739;50.350;7.578;2022-11-04T15:49:04;99007.59;;;11.73;82.21
47883;BME280;37739;50.350;7.578;2022-11-04T15:51:35;99010.91;;;11.67;81.80
47883;BME280;37739;50.350;7.578;2022-11-04T15:56:52;99018.63;;;11.67;81.92
47883;BME280;37739;50.350;7.578;2022-11-04T15:59:26;99026.91;;;11.54;82.31
47883;BME280;37739;50.350;7.578;2022-11-04T16:01:52;99029.22;;;11.40;81.86
47883;BME280;37739;50.350;7.578;2022-11-04T16:04:20;99019.84;;;11.42;82.03
47883;BME280;37739;50.350;7.578;2022-11-04T16:07:02;99025.06;;;11.47;81.60
47883;BME280;37739;50.350;7.578;2022-11-04T16:09:28;99037.66;;;11.34;81.68
47883;BME280;37739;50.350;7.578;2022-11-04T16:14:30;99040.78;;;11.21;81.88
47883;BME280;37739;50.350;7.578;2022-11-04T16:16:58;99040.69;;;11.16;81.70